createdAt,value
2017-08-13T00:01:30.918Z,70.80
2017-08-13T00:03:59.589Z,71.20
2017-08-13T00:06:27.951Z,71.20
2017-08-13T00:08:55.521Z,71.30
2017-08-13T00:11:23.595Z,71.40
2017-08-13T00:13:51.180Z,70.80
2017-08-13T00:16:18.784Z,71.30
2017-08-13T00:18:46.568Z,71.50
2017-08-13T00:21:14.128Z,71.20
2017-08-13T00:23:41.693Z,71.50
2017-08-13T00:26:09.581Z,71.70
2017-08-13T00:28:38.096Z,72.30
2017-08-13T00:31:05.668Z,71.60
2017-08-13T00:33:33.629Z,71.70
2017-08-13T00:36:01.193Z,71.50
2017-08-13T00:38:28.776Z,71.90
2017-08-13T00:40:56.558Z,72.70
2017-08-13T00:43:24.114Z,72.00
2017-08-13T00:45:51.727Z,72.80
2017-08-13T00:48:19.782Z,72.10
2017-08-13T00:50:47.336Z,71.70
2017-08-13T00:53:14.901Z,71.90
2017-08-13T00:55:43.555Z,71.70
2017-08-13T00:58:11.113Z,72.30
2017-08-13T01:00:38.683Z,72.20
2017-08-13T01:03:07.344Z,72.30
2017-08-13T01:05:34.911Z,72.10
2017-08-13T01:08:02.481Z,72.30
2017-08-13T01:10:30.538Z,72.30
2017-08-13T01:12:58.140Z,72.10
2017-08-13T01:15:25.704Z,72.10
2017-08-13T01:17:53.591Z,72.50
2017-08-13T01:20:21.158Z,72.60
2017-08-13T01:22:48.757Z,72.60
2017-08-13T01:25:16.776Z,72.30
2017-08-13T01:27:44.382Z,72.20
2017-08-13T01:30:11.930Z,72.10
2017-08-13T01:32:39.723Z,72.60
2017-08-13T01:35:08.126Z,72.80
2017-08-13T01:37:35.679Z,72.70
2017-08-13T01:40:04.332Z,72.90
2017-08-13T01:42:31.896Z,72.90
2017-08-13T01:44:59.455Z,72.80
2017-08-13T01:47:27.536Z,73.20
2017-08-13T01:49:55.097Z,73.30
2017-08-13T01:52:22.658Z,73.50
2017-08-13T01:54:50.513Z,73.40
2017-08-13T01:57:18.084Z,73.20
2017-08-13T01:59:45.640Z,73.40
2017-08-13T02:02:13.502Z,73.30
2017-08-13T02:04:41.065Z,73.30
2017-08-13T02:07:08.629Z,73.20
2017-08-13T02:09:36.505Z,73.00
2017-08-13T02:12:04.832Z,73.00
2017-08-13T02:14:32.401Z,73.60
2017-08-13T02:17:00.303Z,72.80
2017-08-13T02:19:28.649Z,73.10
2017-08-13T02:21:56.217Z,73.00
2017-08-13T02:24:24.168Z,72.80
2017-08-13T02:26:51.732Z,72.70
2017-08-13T02:29:19.293Z,72.80
2017-08-13T02:31:47.023Z,72.80
2017-08-13T02:34:14.609Z,72.90
2017-08-13T02:36:42.172Z,72.90
2017-08-13T02:39:10.028Z,72.90
2017-08-13T02:41:37.592Z,73.00
2017-08-13T02:44:05.150Z,73.30
2017-08-13T02:46:33.030Z,73.30
2017-08-13T02:49:00.630Z,73.50
2017-08-13T02:51:28.182Z,73.40
2017-08-13T02:53:56.870Z,74.40
2017-08-13T02:56:25.257Z,73.10
2017-08-13T02:58:52.998Z,73.60
2017-08-13T03:01:21.054Z,73.80
2017-08-13T03:03:48.602Z,73.60
2017-08-13T03:06:16.271Z,73.00
2017-08-13T03:08:44.054Z,73.20
2017-08-13T03:11:11.633Z,73.40
2017-08-13T03:13:39.199Z,73.40
2017-08-13T03:16:07.246Z,73.60
2017-08-13T03:18:34.801Z,73.70
2017-08-13T03:21:02.369Z,73.70
2017-08-13T03:23:30.230Z,73.70
2017-08-13T03:25:57.792Z,73.80
2017-08-13T03:28:25.367Z,73.90
2017-08-13T03:30:54.036Z,74.00
2017-08-13T03:33:21.603Z,74.00
2017-08-13T03:35:49.168Z,74.00
2017-08-13T03:38:17.697Z,74.30
2017-08-13T03:40:45.271Z,73.90
2017-08-13T03:43:12.839Z,74.00
2017-08-13T03:45:40.806Z,74.10
2017-08-13T03:48:08.401Z,74.40
2017-08-13T03:50:35.963Z,74.70
2017-08-13T03:53:04.616Z,74.30
2017-08-13T03:55:32.221Z,74.10
2017-08-13T03:57:59.788Z,73.60
2017-08-13T04:00:27.808Z,74.00
2017-08-13T04:02:55.354Z,74.30
2017-08-13T04:05:22.943Z,74.30
2017-08-13T04:07:50.793Z,74.40
2017-08-13T04:10:18.351Z,74.50
2017-08-13T04:12:45.911Z,74.00
2017-08-13T04:15:13.783Z,74.10
2017-08-13T04:17:41.344Z,74.00
2017-08-13T04:20:09.071Z,73.90
2017-08-13T04:22:36.985Z,74.00
2017-08-13T04:25:04.552Z,73.90
2017-08-13T04:27:32.116Z,74.40
2017-08-13T04:30:00.799Z,74.20
2017-08-13T04:32:29.144Z,73.90
2017-08-13T04:34:56.703Z,73.90
2017-08-13T04:37:24.596Z,73.90
2017-08-13T04:39:52.161Z,73.80
2017-08-13T04:42:19.715Z,73.60
2017-08-13T04:44:47.433Z,73.40
2017-08-13T04:47:15.002Z,73.50
2017-08-13T04:49:42.575Z,73.60
2017-08-13T04:52:10.555Z,73.50
2017-08-13T04:54:38.113Z,73.40
2017-08-13T04:57:05.680Z,73.30
2017-08-13T04:59:33.403Z,73.00
2017-08-13T05:02:00.961Z,72.90
2017-08-13T05:04:28.532Z,72.70
2017-08-13T05:06:56.413Z,72.60
2017-08-13T05:09:24.025Z,73.00
2017-08-13T05:11:51.602Z,72.90
2017-08-13T05:14:19.502Z,72.90
2017-08-13T05:16:47.061Z,72.80
2017-08-13T05:19:14.649Z,72.80
2017-08-13T05:21:43.718Z,73.20
2017-08-13T05:24:11.336Z,72.70
2017-08-13T05:26:38.939Z,72.90
2017-08-13T05:29:06.764Z,72.90
2017-08-13T05:31:34.341Z,73.00
2017-08-13T05:34:01.899Z,73.00
2017-08-13T05:36:29.820Z,73.00
2017-08-13T05:38:57.399Z,73.20
2017-08-13T05:41:24.959Z,73.00
2017-08-13T05:43:52.913Z,72.90
2017-08-13T05:46:21.236Z,73.00
2017-08-13T05:48:48.787Z,72.90
2017-08-13T05:51:16.687Z,72.90
2017-08-13T05:53:44.245Z,72.90
2017-08-13T05:56:11.809Z,72.90
2017-08-13T05:58:39.692Z,72.90
2017-08-13T06:01:07.907Z,72.80
2017-08-13T06:03:35.539Z,72.50
2017-08-13T06:06:03.505Z,72.50
2017-08-13T06:08:31.837Z,72.40
2017-08-13T06:10:59.556Z,72.40
2017-08-13T06:13:27.488Z,72.60
2017-08-13T06:15:55.031Z,72.80
2017-08-13T06:18:22.590Z,72.90
2017-08-13T06:20:50.484Z,73.10
2017-08-13T06:23:18.034Z,73.00
2017-08-13T06:25:45.617Z,73.30
2017-08-13T06:28:14.455Z,73.20
2017-08-13T06:30:42.025Z,73.20
2017-08-13T06:33:09.590Z,72.70
2017-08-13T06:35:37.542Z,73.00
2017-08-13T06:38:05.091Z,72.70
2017-08-13T06:40:32.653Z,72.60
2017-08-13T06:43:00.526Z,72.90
2017-08-13T06:45:28.121Z,73.00
2017-08-13T06:47:55.681Z,72.80
2017-08-13T06:50:23.675Z,73.00
2017-08-13T06:52:52.010Z,72.50
2017-08-13T06:55:19.577Z,72.50
2017-08-13T06:57:47.669Z,73.00
2017-08-13T07:00:15.269Z,72.90
2017-08-13T07:02:42.827Z,72.90
2017-08-13T07:05:10.603Z,72.90
2017-08-13T07:07:38.186Z,72.40
2017-08-13T07:10:05.990Z,72.10
2017-08-13T07:12:34.044Z,72.20
2017-08-13T07:15:01.601Z,72.20
2017-08-13T07:17:29.327Z,72.20
2017-08-13T07:19:57.235Z,72.30
2017-08-13T07:22:24.894Z,72.30
2017-08-13T07:24:52.456Z,72.40
2017-08-13T07:27:20.446Z,72.60
2017-08-13T07:29:48.821Z,71.40
2017-08-13T07:32:16.420Z,71.30
2017-08-13T07:34:44.233Z,71.10
2017-08-13T07:37:11.809Z,70.70
2017-08-13T07:39:39.400Z,70.50
2017-08-13T07:42:07.256Z,70.20
2017-08-13T07:44:34.829Z,70.00
2017-08-13T07:47:02.661Z,69.70
2017-08-13T07:49:30.598Z,69.80
2017-08-13T07:51:58.171Z,69.50
2017-08-13T07:54:25.748Z,69.40
2017-08-13T07:56:54.606Z,68.90
2017-08-13T07:59:22.186Z,68.80
2017-08-13T08:01:49.755Z,68.90
2017-08-13T08:04:18.435Z,69.90
2017-08-13T08:06:47.442Z,69.10
2017-08-13T08:09:15.020Z,69.10
2017-08-13T08:11:42.881Z,69.10
2017-08-13T08:14:10.441Z,69.20
2017-08-13T08:16:38.018Z,69.20
2017-08-13T08:19:06.192Z,69.30
2017-08-13T08:21:33.765Z,69.40
2017-08-13T08:24:01.337Z,69.10
2017-08-13T08:26:29.222Z,68.70
2017-08-13T08:28:56.792Z,67.90
2017-08-13T08:31:24.382Z,68.40
2017-08-13T08:33:52.241Z,67.90
2017-08-13T08:36:19.838Z,68.00
2017-08-13T08:38:47.461Z,68.40
2017-08-13T08:41:15.204Z,68.40
2017-08-13T08:43:43.562Z,69.10
2017-08-13T08:46:11.162Z,68.80
2017-08-13T08:48:39.015Z,69.80
2017-08-13T08:51:07.409Z,69.30
2017-08-13T08:53:35.094Z,69.30
2017-08-13T08:56:03.014Z,69.40
2017-08-13T08:58:31.344Z,69.60
2017-08-13T09:00:58.930Z,69.50
2017-08-13T09:03:27.055Z,69.60
2017-08-13T09:05:54.696Z,69.20
2017-08-13T09:08:23.035Z,67.80
2017-08-13T09:10:50.982Z,67.80
2017-08-13T09:13:19.544Z,67.20
2017-08-13T09:15:47.123Z,66.40
2017-08-13T09:18:15.042Z,66.60
2017-08-13T09:20:43.416Z,66.90
2017-08-13T09:23:10.984Z,66.80
2017-08-13T09:25:39.899Z,67.10
2017-08-13T09:28:07.524Z,67.00
2017-08-13T09:30:35.108Z,66.90
2017-08-13T09:33:03.493Z,67.20
2017-08-13T09:35:31.256Z,67.20
2017-08-13T09:38:00.043Z,67.30
2017-08-13T09:40:27.650Z,67.40
2017-08-13T09:42:55.194Z,67.40
2017-08-13T09:45:23.104Z,67.30
2017-08-13T09:47:50.666Z,67.50
2017-08-13T09:50:18.231Z,67.10
2017-08-13T09:52:46.826Z,68.00
2017-08-13T09:55:14.403Z,67.30
2017-08-13T09:57:41.990Z,67.60
2017-08-13T10:00:09.899Z,67.90
2017-08-13T10:02:37.615Z,67.60
2017-08-13T10:05:05.201Z,67.50
2017-08-13T10:07:33.084Z,67.10
2017-08-13T10:10:00.658Z,66.90
2017-08-13T10:12:28.227Z,66.60
2017-08-13T10:14:56.887Z,66.30
2017-08-13T10:17:24.459Z,66.20
2017-08-13T10:19:52.033Z,66.40
2017-08-13T10:22:20.705Z,65.90
2017-08-13T10:24:49.082Z,65.80
2017-08-13T10:27:16.680Z,65.70
2017-08-13T10:29:44.558Z,65.80
2017-08-13T10:32:12.123Z,65.80
2017-08-13T10:34:39.698Z,65.20
2017-08-13T10:37:07.689Z,65.60
2017-08-13T10:39:35.250Z,65.60
2017-08-13T10:42:03.706Z,65.40
2017-08-13T10:44:32.797Z,65.10
2017-08-13T10:47:00.375Z,64.70
2017-08-13T10:49:27.908Z,64.70
2017-08-13T10:51:56.396Z,64.20
2017-08-13T10:54:23.999Z,63.70
2017-08-13T10:56:51.757Z,64.30
2017-08-13T10:59:19.994Z,63.70
2017-08-13T11:01:47.671Z,63.70
2017-08-13T11:04:15.233Z,63.50
2017-08-13T11:06:43.970Z,63.50
2017-08-13T11:09:11.735Z,63.70
2017-08-13T11:11:39.328Z,63.70
2017-08-13T11:14:07.477Z,63.50
2017-08-13T11:16:35.082Z,63.60
2017-08-13T11:19:03.395Z,63.60
2017-08-13T11:21:31.321Z,63.50
2017-08-13T11:23:58.905Z,63.80
2017-08-13T11:26:26.513Z,63.60
2017-08-13T11:28:54.315Z,63.70
2017-08-13T11:31:21.894Z,63.30
2017-08-13T11:33:50.907Z,62.70
2017-08-13T11:36:18.972Z,62.90
2017-08-13T11:38:47.308Z,63.00
2017-08-13T11:41:14.873Z,63.00
2017-08-13T11:43:42.970Z,62.80
2017-08-13T11:46:11.289Z,61.70
2017-08-13T11:48:38.869Z,61.70
2017-08-13T11:51:06.753Z,61.70
2017-08-13T11:53:34.320Z,61.70
2017-08-13T11:56:01.881Z,61.90
2017-08-13T11:58:30.544Z,62.00
2017-08-13T12:00:58.113Z,61.90
2017-08-13T12:03:25.696Z,61.90
2017-08-13T12:05:54.202Z,61.70
2017-08-13T12:08:21.820Z,61.70
2017-08-13T12:10:49.401Z,61.60
2017-08-13T12:13:17.486Z,61.90
2017-08-13T12:15:45.061Z,62.10
2017-08-13T12:18:12.670Z,61.60
2017-08-13T12:20:40.762Z,63.00
2017-08-13T12:23:09.076Z,63.90
2017-08-13T12:25:36.649Z,63.90
2017-08-13T12:28:04.556Z,64.60
2017-08-13T12:30:32.129Z,64.90
2017-08-13T12:32:59.706Z,65.00
2017-08-13T12:35:27.599Z,65.50
2017-08-13T12:37:55.181Z,65.50
2017-08-13T12:40:22.744Z,65.50
2017-08-13T12:42:50.725Z,65.50
2017-08-13T12:45:18.323Z,65.60
2017-08-13T12:47:45.905Z,65.80
2017-08-13T12:50:13.602Z,66.10
2017-08-13T12:52:41.201Z,65.60
2017-08-13T12:55:09.552Z,65.40
2017-08-13T12:57:37.521Z,65.40
2017-08-13T13:00:05.096Z,65.60
2017-08-13T13:02:32.673Z,66.40
2017-08-13T13:05:00.705Z,66.50
2017-08-13T13:07:28.268Z,66.90
2017-08-13T13:09:55.858Z,67.00
2017-08-13T13:12:23.914Z,67.00
2017-08-13T13:14:52.261Z,67.00
2017-08-13T13:17:19.861Z,67.00
2017-08-13T13:19:48.524Z,67.70
2017-08-13T13:22:16.119Z,67.60
2017-08-13T13:24:43.880Z,67.10
2017-08-13T13:27:11.777Z,67.20
2017-08-13T13:29:39.346Z,67.00
2017-08-13T13:32:06.905Z,66.20
2017-08-13T13:34:34.894Z,65.80
2017-08-13T13:37:02.470Z,65.20
2017-08-13T13:39:30.071Z,64.90
2017-08-13T13:41:58.283Z,64.70
2017-08-13T13:44:25.874Z,64.30
2017-08-13T13:46:53.446Z,63.90
2017-08-13T13:49:22.361Z,62.30
2017-08-13T13:51:49.928Z,62.00
2017-08-13T13:54:17.501Z,61.30
2017-08-13T13:56:45.518Z,60.40
2017-08-13T13:59:13.845Z,56.50
2017-08-13T14:01:41.695Z,56.20
2017-08-13T14:04:09.467Z,54.80
2017-08-13T14:06:37.061Z,56.10
2017-08-13T14:09:04.626Z,55.60
2017-08-13T14:11:32.718Z,56.10
2017-08-13T14:14:01.047Z,56.00
2017-08-13T14:16:28.796Z,56.00
2017-08-13T14:18:56.973Z,56.10
2017-08-13T14:21:24.544Z,56.60
2017-08-13T14:23:52.119Z,57.20
2017-08-13T14:26:19.906Z,57.70
2017-08-13T14:28:48.253Z,60.00
2017-08-13T14:31:15.887Z,59.00
2017-08-13T14:33:43.826Z,58.90
2017-08-13T14:36:11.402Z,59.20
2017-08-13T14:38:38.999Z,59.60
2017-08-13T14:41:07.827Z,59.90
2017-08-13T14:46:10.928Z,60.40
2017-08-13T14:48:38.507Z,59.80
2017-08-13T14:51:06.860Z,58.10
2017-08-13T14:53:35.034Z,58.00
2017-08-13T14:56:02.720Z,58.80
2017-08-13T14:58:31.080Z,58.60
2017-08-13T15:00:58.803Z,58.50
2017-08-13T15:03:26.374Z,58.30
2017-08-13T15:05:54.123Z,57.00
2017-08-13T15:08:22.042Z,56.40
2017-08-13T15:10:50.416Z,56.50
2017-08-13T15:13:17.977Z,56.50
2017-08-13T15:15:46.660Z,56.50
2017-08-13T15:18:15.095Z,56.50
2017-08-13T15:20:43.367Z,56.30
2017-08-13T15:23:11.287Z,57.10
2017-08-13T15:25:39.637Z,57.00
2017-08-13T15:28:07.203Z,57.00
2017-08-13T15:30:35.075Z,56.60
2017-08-13T15:33:02.650Z,56.70
2017-08-13T15:35:30.566Z,56.80
2017-08-13T15:37:58.315Z,56.00
2017-08-13T15:40:26.156Z,55.10
2017-08-13T15:42:54.488Z,54.20
2017-08-13T15:45:22.319Z,54.10
2017-08-13T15:47:49.942Z,53.60
2017-08-13T15:50:18.296Z,50.00
2017-08-13T15:52:46.158Z,50.00
2017-08-13T15:55:13.760Z,50.20
2017-08-13T15:57:42.121Z,45.80
2017-08-13T16:00:10.112Z,45.70
2017-08-13T16:02:37.670Z,42.30
2017-08-13T16:05:05.234Z,41.20
2017-08-13T16:07:33.936Z,36.90
2017-08-13T16:10:01.504Z,36.90
2017-08-13T16:12:29.161Z,34.80
2017-08-13T16:14:56.919Z,33.80
2017-08-13T16:17:24.566Z,33.50
2017-08-13T16:19:52.900Z,37.20
2017-08-13T16:22:20.655Z,37.20
2017-08-13T16:24:48.410Z,39.90
2017-08-13T16:27:15.984Z,41.10
2017-08-13T16:29:44.115Z,42.90
2017-08-13T16:32:11.721Z,45.50
2017-08-13T16:34:39.960Z,46.60
2017-08-13T16:37:07.884Z,48.50
2017-08-13T16:39:35.467Z,50.30
2017-08-13T16:42:03.045Z,49.90
2017-08-13T16:44:30.760Z,51.10
2017-08-13T16:46:58.329Z,51.40
2017-08-13T16:49:26.157Z,52.90
2017-08-13T16:51:54.099Z,52.70
2017-08-13T16:54:21.768Z,54.50
2017-08-13T16:56:49.335Z,54.90
2017-08-13T16:59:17.446Z,54.80
2017-08-13T17:01:45.017Z,55.80
2017-08-13T17:04:12.625Z,56.00
2017-08-13T17:06:40.651Z,56.00
2017-08-13T17:09:08.313Z,55.80
2017-08-13T17:11:35.938Z,56.50
2017-08-13T17:14:04.183Z,57.10
2017-08-13T17:16:31.758Z,57.70
2017-08-13T17:18:59.363Z,58.10
2017-08-13T17:21:27.084Z,58.40
2017-08-13T17:23:54.744Z,58.90
2017-08-13T17:26:22.624Z,59.20
2017-08-13T17:28:50.628Z,60.00
2017-08-13T17:31:18.988Z,59.90
2017-08-13T17:33:46.629Z,59.70
2017-08-13T17:36:14.357Z,59.70
2017-08-13T17:38:41.940Z,60.00
2017-08-13T17:41:09.504Z,60.30
2017-08-13T17:43:37.429Z,60.80
2017-08-13T17:46:05.041Z,60.90
2017-08-13T17:48:32.640Z,61.20
2017-08-13T17:51:00.644Z,61.30
2017-08-13T17:53:28.279Z,61.40
2017-08-13T17:55:55.984Z,61.70
2017-08-13T17:58:23.975Z,61.80
2017-08-13T18:00:51.575Z,61.90
2017-08-13T18:03:19.195Z,62.20
2017-08-13T18:05:47.210Z,62.30
2017-08-13T18:08:15.558Z,62.70
2017-08-13T18:10:43.507Z,62.60
2017-08-13T18:13:13.829Z,63.20
2017-08-13T18:15:41.897Z,63.10
2017-08-13T18:18:09.531Z,63.40
2017-08-13T18:20:37.471Z,63.70
2017-08-13T18:23:05.820Z,63.70
2017-08-13T18:25:33.427Z,63.70
2017-08-13T18:28:02.858Z,64.40
2017-08-13T18:30:30.444Z,64.30
2017-08-13T18:32:58.086Z,64.80
2017-08-13T18:35:25.909Z,64.90
2017-08-13T18:37:54.282Z,64.90
2017-08-13T18:40:21.872Z,65.20
2017-08-13T18:42:49.944Z,66.10
2017-08-13T18:45:17.532Z,65.50
2017-08-13T18:47:45.133Z,65.60
2017-08-13T18:50:13.855Z,65.80
2017-08-13T18:52:41.486Z,65.80
2017-08-13T18:55:09.054Z,65.90
2017-08-13T18:57:37.900Z,66.20
2017-08-13T19:00:05.628Z,66.10
2017-08-13T19:02:33.327Z,66.30
2017-08-13T19:05:01.332Z,66.30
2017-08-13T19:07:29.712Z,66.40
2017-08-13T19:09:57.340Z,66.40
2017-08-13T19:12:25.160Z,66.60
2017-08-13T19:14:53.020Z,66.80
2017-08-13T19:17:21.381Z,67.60
2017-08-13T19:19:49.388Z,67.50
2017-08-13T19:22:17.859Z,67.50
2017-08-13T19:24:45.555Z,67.50
2017-08-13T19:27:13.706Z,67.50
2017-08-13T19:29:41.308Z,67.40
2017-08-13T19:32:08.957Z,67.40
2017-08-13T19:34:36.701Z,67.40
2017-08-13T19:37:04.400Z,67.40
2017-08-13T19:39:32.498Z,67.30
2017-08-13T19:42:00.457Z,67.50
2017-08-13T19:44:28.071Z,67.80
2017-08-13T19:46:55.847Z,67.80
2017-08-13T19:49:23.981Z,68.00
2017-08-13T19:51:51.606Z,68.00
2017-08-13T19:54:19.235Z,67.70
2017-08-13T19:56:47.261Z,68.10
2017-08-13T19:59:14.861Z,68.60
2017-08-13T20:01:42.459Z,69.00
2017-08-13T20:04:10.203Z,69.10
2017-08-13T20:06:37.910Z,69.40
2017-08-13T20:09:05.487Z,69.40
2017-08-13T20:11:33.331Z,69.70
2017-08-13T20:14:01.705Z,69.60
2017-08-13T20:16:29.312Z,69.40
2017-08-13T20:18:57.123Z,69.60
2017-08-13T20:21:24.726Z,70.10
2017-08-13T20:23:52.337Z,70.20
2017-08-13T20:26:20.325Z,70.30
2017-08-13T20:28:48.679Z,70.20
2017-08-13T20:31:16.273Z,70.10
2017-08-13T20:33:45.577Z,70.00
2017-08-13T20:36:13.190Z,70.00
2017-08-13T20:38:40.816Z,70.80
2017-08-13T20:41:08.741Z,70.10
2017-08-13T20:43:36.372Z,70.30
2017-08-13T20:46:03.941Z,70.10
2017-08-13T20:48:31.924Z,69.20
2017-08-13T20:50:59.520Z,70.20
2017-08-13T20:53:27.287Z,71.00
2017-08-13T20:55:55.146Z,70.50
2017-08-13T20:58:23.468Z,70.50
2017-08-13T21:00:51.023Z,70.50
2017-08-13T21:03:19.086Z,70.80
2017-08-13T21:05:46.671Z,70.80
2017-08-13T21:08:14.281Z,70.80
2017-08-13T21:10:42.317Z,70.80
2017-08-13T21:13:10.097Z,70.80
2017-08-13T21:15:37.689Z,70.70
2017-08-13T21:18:05.523Z,70.80
2017-08-13T21:20:33.860Z,70.80
2017-08-13T21:23:01.493Z,70.80
2017-08-13T21:25:29.391Z,70.80
2017-08-13T21:27:57.003Z,70.70
2017-08-13T21:30:24.555Z,70.70
2017-08-13T21:32:52.312Z,70.70
2017-08-13T21:35:20.647Z,71.00
2017-08-13T21:37:48.213Z,71.00
2017-08-13T21:40:16.133Z,71.10
2017-08-13T21:42:44.309Z,70.60
2017-08-13T21:45:11.903Z,70.60
2017-08-13T21:47:39.528Z,71.20
2017-08-13T21:50:07.115Z,70.70
2017-08-13T21:52:35.248Z,71.20
2017-08-13T21:55:02.869Z,71.10
2017-08-13T21:57:30.444Z,70.80
2017-08-13T21:59:58.053Z,70.90
2017-08-13T22:02:25.633Z,71.20
2017-08-13T22:04:53.571Z,71.20
2017-08-13T22:07:21.142Z,71.10
2017-08-13T22:09:48.708Z,70.90
2017-08-13T22:12:16.316Z,71.20
2017-08-13T22:14:44.190Z,71.10
2017-08-13T22:17:12.905Z,71.20
2017-08-13T22:19:40.552Z,71.10
2017-08-13T22:22:08.922Z,71.50
2017-08-13T22:24:36.623Z,71.40
2017-08-13T22:27:04.198Z,71.40
2017-08-13T22:29:32.209Z,71.40
2017-08-13T22:31:59.788Z,71.60
2017-08-13T22:34:27.349Z,71.60
2017-08-13T22:36:55.751Z,71.50
2017-08-13T22:39:23.320Z,71.40
2017-08-13T22:41:51.347Z,71.70
2017-08-13T22:44:19.701Z,72.00
2017-08-13T22:46:47.915Z,71.60
2017-08-13T22:49:15.546Z,71.70
2017-08-13T22:51:43.167Z,71.80
2017-08-13T22:54:11.120Z,72.00
2017-08-13T22:56:38.692Z,72.00
2017-08-13T22:59:06.281Z,71.90
2017-08-13T23:01:34.650Z,72.40
2017-08-13T23:04:02.207Z,72.30
2017-08-13T23:06:30.140Z,72.40
2017-08-13T23:08:57.704Z,72.70
2017-08-13T23:11:25.254Z,72.30
2017-08-13T23:13:52.843Z,73.20
2017-08-13T23:16:21.196Z,72.30
2017-08-13T23:18:49.198Z,72.30
2017-08-13T23:21:16.751Z,72.50
2017-08-13T23:23:44.308Z,72.30
2017-08-13T23:26:11.909Z,72.10
2017-08-13T23:28:39.460Z,72.20
2017-08-13T23:31:08.111Z,72.90
2017-08-13T23:33:35.675Z,72.80
2017-08-13T23:36:03.250Z,72.80
2017-08-13T23:38:30.844Z,72.80
2017-08-13T23:40:58.395Z,73.10
2017-08-13T23:43:26.430Z,72.80
2017-08-13T23:45:54.054Z,72.70
2017-08-13T23:48:21.601Z,72.60
2017-08-13T23:50:49.210Z,72.50
2017-08-13T23:53:16.785Z,72.30
2017-08-13T23:55:44.728Z,72.70
2017-08-13T23:58:12.302Z,72.40
